sensor_id;sensor_type;location;lat;lon;timestamp;pressure;altitude;pressure_sealevel;temperature;humidity
76868;BME280;66168;45.478;11.060;2023-04-24T00:01:06;99860.09;;;18.18;53.71
76868;BME280;66168;45.478;11.060;2023-04-24T00:03:34;99854.23;;;18.17;54.15
76868;BME280;66168;45.478;11.060;2023-04-24T00:06:01;99853.79;;;18.18;54.32
76868;BME280;66168;45.478;11.060;2023-04-24T00:08:29;99852.77;;;18.16;54.02
76868;BME280;66168;45.478;11.060;2023-04-24T00:10:56;99848.36;;;18.14;54.10
76868;BME280;66168;45.478;11.060;2023-04-24T00:13:23;99846.55;;;18.12;54.06
76868;BME280;66168;45.478;11.060;2023-04-24T00:15:50;99847.81;;;18.09;54.10
76868;BME280;66168;45.478;11.060;2023-04-24T00:18:17;99847.70;;;18.09;54.06
76868;BME280;66168;45.478;11.060;2023-04-24T00:21:02;99845.10;;;18.08;54.15
76868;BME280;66168;45.478;11.060;2023-04-24T00:23:30;99840.16;;;18.07;54.17
76868;BME280;66168;45.478;11.060;2023-04-24T00:25:56;99836.79;;;18.05;54.35
76868;BME280;66168;45.478;11.060;2023-04-24T00:28:23;99830.44;;;18.04;54.36
76868;BME280;66168;45.478;11.060;2023-04-24T00:30:50;99828.38;;;18.03;54.48
76868;BME280;66168;45.478;11.060;2023-04-24T00:33:18;99828.59;;;18.03;54.83
76868;BME280;66168;45.478;11.060;2023-04-24T00:35:44;99822.41;;;18.00;54.82
76868;BME280;66168;45.478;11.060;2023-04-24T00:38:11;99820.15;;;17.97;54.73
76868;BME280;66168;45.478;11.060;2023-04-24T00:40:38;99817.92;;;17.96;54.66
76868;BME280;66168;45.478;11.060;2023-04-24T00:43:05;99813.54;;;17.94;54.58
76868;BME280;66168;45.478;11.060;2023-04-24T00:45:34;99809.10;;;17.93;54.59
76868;BME280;66168;45.478;11.060;2023-04-24T00:48:01;99804.52;;;17.92;54.53
76868;BME280;66168;45.478;11.060;2023-04-24T00:50:29;99803.54;;;17.91;54.62
76868;BME280;66168;45.478;11.060;2023-04-24T00:52:56;99796.28;;;17.91;54.69
76868;BME280;66168;45.478;11.060;2023-04-24T00:55:24;99798.88;;;17.92;54.81
76868;BME280;66168;45.478;11.060;2023-04-24T00:57:52;99800.59;;;17.92;54.63
76868;BME280;66168;45.478;11.060;2023-04-24T01:00:19;99798.02;;;17.93;54.72
76868;BME280;66168;45.478;11.060;2023-04-24T01:02:46;99794.83;;;17.91;54.79
76868;BME280;66168;45.478;11.060;2023-04-24T01:05:14;99793.55;;;17.90;54.83
76868;BME280;66168;45.478;11.060;2023-04-24T01:07:44;99793.02;;;17.89;55.03
76868;BME280;66168;45.478;11.060;2023-04-24T01:10:13;99792.52;;;17.85;55.30
76868;BME280;66168;45.478;11.060;2023-04-24T01:12:40;99788.48;;;17.85;55.29
76868;BME280;66168;45.478;11.060;2023-04-24T01:15:08;99787.08;;;17.85;55.19
76868;BME280;66168;45.478;11.060;2023-04-24T01:17:35;99785.36;;;17.85;55.28
76868;BME280;66168;45.478;11.060;2023-04-24T01:20:02;99786.40;;;17.86;55.45
76868;BME280;66168;45.478;11.060;2023-04-24T01:22:35;99783.00;;;17.85;55.46
76868;BME280;66168;45.478;11.060;2023-04-24T01:25:02;99778.54;;;17.79;55.64
76868;BME280;66168;45.478;11.060;2023-04-24T01:27:30;99771.37;;;17.78;55.59
76868;BME280;66168;45.478;11.060;2023-04-24T01:29:57;99761.64;;;17.76;55.95
76868;BME280;66168;45.478;11.060;2023-04-24T01:32:24;99757.04;;;17.77;56.08
76868;BME280;66168;45.478;11.060;2023-04-24T01:34:51;99756.69;;;17.76;56.42
76868;BME280;66168;45.478;11.060;2023-04-24T01:37:18;99751.36;;;17.76;56.62
76868;BME280;66168;45.478;11.060;2023-04-24T01:39:45;99748.07;;;17.72;56.87
76868;BME280;66168;45.478;11.060;2023-04-24T01:42:12;99743.60;;;17.68;57.44
76868;BME280;66168;45.478;11.060;2023-04-24T01:44:40;99740.91;;;17.65;57.43
76868;BME280;66168;45.478;11.060;2023-04-24T01:47:07;99738.53;;;17.57;58.10
76868;BME280;66168;45.478;11.060;2023-04-24T01:49:34;99735.45;;;17.52;58.28
76868;BME280;66168;45.478;11.060;2023-04-24T01:52:01;99732.91;;;17.45;58.92
76868;BME280;66168;45.478;11.060;2023-04-24T01:54:29;99732.22;;;17.39;59.15
76868;BME280;66168;45.478;11.060;2023-04-24T01:56:56;99728.50;;;17.36;59.65
76868;BME280;66168;45.478;11.060;2023-04-24T01:59:25;99727.67;;;17.35;59.86
76868;BME280;66168;45.478;11.060;2023-04-24T02:01:52;99731.34;;;17.32;59.81
76868;BME280;66168;45.478;11.060;2023-04-24T02:04:19;99733.92;;;17.26;60.45
76868;BME280;66168;45.478;11.060;2023-04-24T02:06:46;99731.52;;;17.21;61.03
76868;BME280;66168;45.478;11.060;2023-04-24T02:09:13;99730.52;;;17.11;61.84
76868;BME280;66168;45.478;11.060;2023-04-24T02:11:39;99726.88;;;17.00;62.35
76868;BME280;66168;45.478;11.060;2023-04-24T02:14:06;99727.95;;;16.92;63.25
76868;BME280;66168;45.478;11.060;2023-04-24T02:16:33;99735.38;;;16.80;63.73
76868;BME280;66168;45.478;11.060;2023-04-24T02:19:00;99735.88;;;16.70;63.74
76868;BME280;66168;45.478;11.060;2023-04-24T02:21:27;99735.62;;;16.60;63.91
76868;BME280;66168;45.478;11.060;2023-04-24T02:23:54;99735.75;;;16.52;64.58
76868;BME280;66168;45.478;11.060;2023-04-24T02:26:21;99739.41;;;16.51;65.40
76868;BME280;66168;45.478;11.060;2023-04-24T02:28:51;99736.94;;;16.50;65.77
76868;BME280;66168;45.478;11.060;2023-04-24T02:31:19;99733.96;;;16.49;65.81
76868;BME280;66168;45.478;11.060;2023-04-24T02:33:47;99735.02;;;16.48;66.14
76868;BME280;66168;45.478;11.060;2023-04-24T02:36:14;99731.80;;;16.45;66.14
76868;BME280;66168;45.478;11.060;2023-04-24T02:38:40;99731.67;;;16.41;66.25
76868;BME280;66168;45.478;11.060;2023-04-24T02:41:07;99728.52;;;16.36;66.94
76868;BME280;66168;45.478;11.060;2023-04-24T02:43:34;99725.88;;;16.33;67.06
76868;BME280;66168;45.478;11.060;2023-04-24T02:46:01;99720.20;;;16.28;67.06
76868;BME280;66168;45.478;11.060;2023-04-24T02:48:28;99721.99;;;16.27;67.15
76868;BME280;66168;45.478;11.060;2023-04-24T02:50:54;99719.92;;;16.23;67.56
76868;BME280;66168;45.478;11.060;2023-04-24T02:53:21;99713.10;;;16.17;68.16
76868;BME280;66168;45.478;11.060;2023-04-24T02:55:49;99707.86;;;16.18;68.34
76868;BME280;66168;45.478;11.060;2023-04-24T02:58:15;99703.98;;;16.21;68.67
76868;BME280;66168;45.478;11.060;2023-04-24T03:00:43;99703.50;;;16.23;68.76
76868;BME280;66168;45.478;11.060;2023-04-24T03:03:10;99699.49;;;16.23;68.91
76868;BME280;66168;45.478;11.060;2023-04-24T03:05:37;99690.84;;;16.22;68.84
76868;BME280;66168;45.478;11.060;2023-04-24T03:08:04;99686.29;;;16.21;68.81
76868;BME280;66168;45.478;11.060;2023-04-24T03:10:31;99684.52;;;16.18;68.91
76868;BME280;66168;45.478;11.060;2023-04-24T03:12:58;99687.44;;;16.17;68.82
76868;BME280;66168;45.478;11.060;2023-04-24T03:15:26;99689.30;;;16.09;69.75
76868;BME280;66168;45.478;11.060;2023-04-24T03:17:53;99694.52;;;15.95;70.13
76868;BME280;66168;45.478;11.060;2023-04-24T03:20:22;99695.27;;;15.77;71.29
76868;BME280;66168;45.478;11.060;2023-04-24T03:22:49;99698.20;;;15.58;71.37
76868;BME280;66168;45.478;11.060;2023-04-24T03:25:16;99699.73;;;15.47;71.73
76868;BME280;66168;45.478;11.060;2023-04-24T03:27:43;99699.76;;;15.39;72.87
76868;BME280;66168;45.478;11.060;2023-04-24T03:30:30;99699.39;;;15.30;72.74
76868;BME280;66168;45.478;11.060;2023-04-24T03:32:58;99707.13;;;15.23;73.00
76868;BME280;66168;45.478;11.060;2023-04-24T03:35:28;99707.46;;;15.17;72.80
76868;BME280;66168;45.478;11.060;2023-04-24T03:37:55;99711.95;;;15.14;73.63
76868;BME280;66168;45.478;11.060;2023-04-24T03:40:46;99710.84;;;15.15;73.36
76868;BME280;66168;45.478;11.060;2023-04-24T03:43:31;99713.14;;;15.23;73.97
76868;BME280;66168;45.478;11.060;2023-04-24T03:46:00;99714.76;;;15.34;74.32
76868;BME280;66168;45.478;11.060;2023-04-24T03:48:28;99718.55;;;15.45;74.14
76868;BME280;66168;45.478;11.060;2023-04-24T03:50:55;99714.95;;;15.52;73.87
76868;BME280;66168;45.478;11.060;2023-04-24T03:53:21;99714.20;;;15.55;74.25
76868;BME280;66168;45.478;11.060;2023-04-24T03:55:48;99713.59;;;15.63;74.22
76868;BME280;66168;45.478;11.060;2023-04-24T03:58:15;99717.06;;;15.69;73.66
76868;BME280;66168;45.478;11.060;2023-04-24T04:00:42;99718.08;;;15.73;73.38
76868;BME280;66168;45.478;11.060;2023-04-24T04:03:31;99719.08;;;15.70;73.37
76868;BME280;66168;45.478;11.060;2023-04-24T04:05:58;99712.80;;;15.68;73.49
76868;BME280;66168;45.478;11.060;2023-04-24T04:08:25;99709.74;;;15.70;73.92
76868;BME280;66168;45.478;11.060;2023-04-24T04:10:52;99708.85;;;15.75;73.70
76868;BME280;66168;45.478;11.060;2023-04-24T04:13:19;99710.98;;;15.79;73.61
76868;BME280;66168;45.478;11.060;2023-04-24T04:15:45;99713.84;;;15.77;73.27
76868;BME280;66168;45.478;11.060;2023-04-24T04:18:12;99714.86;;;15.75;73.40
76868;BME280;66168;45.478;11.060;2023-04-24T04:20:39;99711.98;;;15.72;73.69
76868;BME280;66168;45.478;11.060;2023-04-24T04:23:06;99711.44;;;15.60;74.02
76868;BME280;66168;45.478;11.060;2023-04-24T04:25:55;99715.63;;;15.48;74.28
76868;BME280;66168;45.478;11.060;2023-04-24T04:28:24;99720.14;;;15.45;74.74
76868;BME280;66168;45.478;11.060;2023-04-24T04:30:51;99723.35;;;15.47;74.59
76868;BME280;66168;45.478;11.060;2023-04-24T04:33:22;99726.65;;;15.44;74.59
76868;BME280;66168;45.478;11.060;2023-04-24T04:35:49;99732.33;;;15.46;74.63
76868;BME280;66168;45.478;11.060;2023-04-24T04:38:20;99737.27;;;15.48;74.87
76868;BME280;66168;45.478;11.060;2023-04-24T04:40:56;99743.38;;;15.51;75.18
76868;BME280;66168;45.478;11.060;2023-04-24T04:43:24;99750.04;;;15.57;75.13
76868;BME280;66168;45.478;11.060;2023-04-24T04:45:54;99749.81;;;15.58;75.12
76868;BME280;66168;45.478;11.060;2023-04-24T04:48:41;99751.46;;;15.59;74.85
76868;BME280;66168;45.478;11.060;2023-04-24T04:51:08;99750.29;;;15.60;75.31
76868;BME280;66168;45.478;11.060;2023-04-24T04:53:35;99753.23;;;15.62;74.70
76868;BME280;66168;45.478;11.060;2023-04-24T04:56:02;99766.85;;;15.58;74.58
76868;BME280;66168;45.478;11.060;2023-04-24T04:58:39;99776.42;;;15.49;74.87
76868;BME280;66168;45.478;11.060;2023-04-24T05:01:08;99781.91;;;15.49;74.83
76868;BME280;66168;45.478;11.060;2023-04-24T05:03:39;99791.32;;;15.51;74.77
76868;BME280;66168;45.478;11.060;2023-04-24T05:06:08;99797.98;;;15.49;74.63
76868;BME280;66168;45.478;11.060;2023-04-24T05:08:37;99807.91;;;15.39;75.01
76868;BME280;66168;45.478;11.060;2023-04-24T05:11:07;99814.80;;;15.32;75.33
76868;BME280;66168;45.478;11.060;2023-04-24T05:13:34;99808.23;;;15.25;75.13
76868;BME280;66168;45.478;11.060;2023-04-24T05:16:29;99787.95;;;15.18;75.16
76868;BME280;66168;45.478;11.060;2023-04-24T05:18:57;99767.81;;;15.06;74.86
76868;BME280;66168;45.478;11.060;2023-04-24T05:21:28;99742.05;;;14.95;74.28
76868;BME280;66168;45.478;11.060;2023-04-24T05:23:55;99762.22;;;14.89;73.90
76868;BME280;66168;45.478;11.060;2023-04-24T05:26:34;99778.69;;;14.79;73.44
76868;BME280;66168;45.478;11.060;2023-04-24T05:29:03;99780.23;;;14.71;73.67
76868;BME280;66168;45.478;11.060;2023-04-24T05:31:30;99782.89;;;14.67;73.88
76868;BME280;66168;45.478;11.060;2023-04-24T05:33:57;99779.79;;;14.65;74.17
76868;BME280;66168;45.478;11.060;2023-04-24T05:36:25;99778.06;;;14.65;74.31
76868;BME280;66168;45.478;11.060;2023-04-24T05:38:53;99773.20;;;14.65;74.45
76868;BME280;66168;45.478;11.060;2023-04-24T05:41:20;99763.65;;;14.68;74.32
76868;BME280;66168;45.478;11.060;2023-04-24T05:43:47;99756.14;;;14.70;74.23
76868;BME280;66168;45.478;11.060;2023-04-24T05:46:14;99752.81;;;14.74;73.92
76868;BME280;66168;45.478;11.060;2023-04-24T05:48:41;99753.63;;;14.74;73.55
76868;BME280;66168;45.478;11.060;2023-04-24T05:51:09;99751.08;;;14.73;73.54
76868;BME280;66168;45.478;11.060;2023-04-24T05:53:36;99742.33;;;14.76;73.74
76868;BME280;66168;45.478;11.060;2023-04-24T05:56:03;99729.23;;;14.79;73.58
76868;BME280;66168;45.478;11.060;2023-04-24T05:58:30;99723.69;;;14.84;73.69
76868;BME280;66168;45.478;11.060;2023-04-24T06:00:58;99722.06;;;14.89;73.66
76868;BME280;66168;45.478;11.060;2023-04-24T06:03:27;99723.67;;;14.95;73.32
76868;BME280;66168;45.478;11.060;2023-04-24T06:05:54;99722.69;;;14.98;73.01
76868;BME280;66168;45.478;11.060;2023-04-24T06:08:21;99721.70;;;15.00;72.77
76868;BME280;66168;45.478;11.060;2023-04-24T06:10:48;99716.34;;;14.98;72.60
76868;BME280;66168;45.478;11.060;2023-04-24T06:13:17;99718.36;;;14.98;72.63
76868;BME280;66168;45.478;11.060;2023-04-24T06:15:56;99736.20;;;15.00;72.81
76868;BME280;66168;45.478;11.060;2023-04-24T06:18:31;99743.36;;;15.04;72.87
76868;BME280;66168;45.478;11.060;2023-04-24T06:20:58;99747.35;;;15.05;72.79
76868;BME280;66168;45.478;11.060;2023-04-24T06:23:25;99756.98;;;14.96;72.69
76868;BME280;66168;45.478;11.060;2023-04-24T06:25:53;99754.73;;;14.81;72.62
76868;BME280;66168;45.478;11.060;2023-04-24T06:28:19;99758.52;;;14.68;72.64
76868;BME280;66168;45.478;11.060;2023-04-24T06:30:46;99752.31;;;14.55;73.25
76868;BME280;66168;45.478;11.060;2023-04-24T06:33:13;99756.23;;;14.50;73.83
76868;BME280;66168;45.478;11.060;2023-04-24T06:35:44;99763.77;;;14.55;74.09
76868;BME280;66168;45.478;11.060;2023-04-24T06:38:11;99762.08;;;14.55;74.42
76868;BME280;66168;45.478;11.060;2023-04-24T06:40:38;99764.86;;;14.54;74.48
76868;BME280;66168;45.478;11.060;2023-04-24T06:43:05;99767.42;;;14.63;74.34
76868;BME280;66168;45.478;11.060;2023-04-24T06:45:32;99783.16;;;14.72;74.32
76868;BME280;66168;45.478;11.060;2023-04-24T06:47:59;99788.39;;;14.83;74.29
76868;BME280;66168;45.478;11.060;2023-04-24T06:50:26;99782.83;;;14.94;74.34
76868;BME280;66168;45.478;11.060;2023-04-24T06:52:53;99776.11;;;15.01;74.26
76868;BME280;66168;45.478;11.060;2023-04-24T06:55:19;99767.40;;;15.09;74.22
76868;BME280;66168;45.478;11.060;2023-04-24T06:57:46;99764.33;;;15.16;73.61
76868;BME280;66168;45.478;11.060;2023-04-24T07:00:13;99759.30;;;15.19;73.30
76868;BME280;66168;45.478;11.060;2023-04-24T07:02:40;99754.52;;;15.22;73.48
76868;BME280;66168;45.478;11.060;2023-04-24T07:05:07;99749.93;;;15.23;73.16
76868;BME280;66168;45.478;11.060;2023-04-24T07:07:34;99746.25;;;15.19;73.43
76868;BME280;66168;45.478;11.060;2023-04-24T07:10:05;99747.22;;;15.20;73.58
76868;BME280;66168;45.478;11.060;2023-04-24T07:12:32;99748.70;;;15.29;74.23
76868;BME280;66168;45.478;11.060;2023-04-24T07:15:00;99745.61;;;15.44;74.16
76868;BME280;66168;45.478;11.060;2023-04-24T07:17:27;99736.54;;;15.59;73.53
76868;BME280;66168;45.478;11.060;2023-04-24T07:19:54;99734.39;;;15.69;73.58
76868;BME280;66168;45.478;11.060;2023-04-24T07:22:20;99733.80;;;15.83;73.42
76868;BME280;66168;45.478;11.060;2023-04-24T07:24:47;99739.33;;;15.97;73.20
76868;BME280;66168;45.478;11.060;2023-04-24T07:27:14;99740.04;;;16.11;72.67
76868;BME280;66168;45.478;11.060;2023-04-24T07:29:41;99735.46;;;16.20;72.15
76868;BME280;66168;45.478;11.060;2023-04-24T07:32:09;99736.55;;;16.30;71.97
76868;BME280;66168;45.478;11.060;2023-04-24T07:34:35;99737.83;;;16.37;71.76
76868;BME280;66168;45.478;11.060;2023-04-24T07:37:02;99730.63;;;16.42;71.52
76868;BME280;66168;45.478;11.060;2023-04-24T07:39:29;99731.25;;;16.40;71.46
76868;BME280;66168;45.478;11.060;2023-04-24T07:41:56;99732.98;;;16.36;70.80
76868;BME280;66168;45.478;11.060;2023-04-24T07:44:26;99739.86;;;16.25;70.75
76868;BME280;66168;45.478;11.060;2023-04-24T07:46:53;99740.10;;;16.14;70.90
76868;BME280;66168;45.478;11.060;2023-04-24T07:49:20;99744.60;;;16.04;70.82
76868;BME280;66168;45.478;11.060;2023-04-24T07:51:47;99744.66;;;15.95;70.53
76868;BME280;66168;45.478;11.060;2023-04-24T07:54:13;99747.59;;;15.85;70.66
76868;BME280;66168;45.478;11.060;2023-04-24T07:56:41;99747.54;;;15.83;71.12
76868;BME280;66168;45.478;11.060;2023-04-24T07:59:10;99752.17;;;15.87;71.82
76868;BME280;66168;45.478;11.060;2023-04-24T08:01:37;99759.04;;;15.88;71.85
76868;BME280;66168;45.478;11.060;2023-04-24T08:04:04;99758.14;;;15.90;72.31
76868;BME280;66168;45.478;11.060;2023-04-24T08:06:31;99755.10;;;15.94;72.71
76868;BME280;66168;45.478;11.060;2023-04-24T08:08:59;99752.69;;;15.97;73.11
76868;BME280;66168;45.478;11.060;2023-04-24T08:11:26;99754.23;;;15.99;73.17
76868;BME280;66168;45.478;11.060;2023-04-24T08:13:53;99754.17;;;16.05;73.01
76868;BME280;66168;45.478;11.060;2023-04-24T08:16:22;99755.59;;;16.11;72.38
76868;BME280;66168;45.478;11.060;2023-04-24T08:18:51;99761.23;;;16.15;72.12
76868;BME280;66168;45.478;11.060;2023-04-24T08:21:18;99759.58;;;16.23;72.31
76868;BME280;66168;45.478;11.060;2023-04-24T08:23:46;99758.60;;;16.29;71.94
76868;BME280;66168;45.478;11.060;2023-04-24T08:26:13;99756.09;;;16.35;71.94
76868;BME280;66168;45.478;11.060;2023-04-24T08:28:40;99757.95;;;16.41;71.27
76868;BME280;66168;45.478;11.060;2023-04-24T08:31:06;99756.42;;;16.45;70.44
76868;BME280;66168;45.478;11.060;2023-04-24T08:33:33;99757.97;;;16.47;69.55
76868;BME280;66168;45.478;11.060;2023-04-24T08:36:04;99757.67;;;16.53;68.24
76868;BME280;66168;45.478;11.060;2023-04-24T08:38:31;99754.14;;;16.54;66.84
76868;BME280;66168;45.478;11.060;2023-04-24T08:40:59;99750.52;;;16.59;66.94
76868;BME280;66168;45.478;11.060;2023-04-24T08:43:27;99747.90;;;16.62;66.32
76868;BME280;66168;45.478;11.060;2023-04-24T08:45:55;99741.35;;;16.67;65.94
76868;BME280;66168;45.478;11.060;2023-04-24T08:48:23;99742.18;;;16.71;65.99
76868;BME280;66168;45.478;11.060;2023-04-24T08:50:58;99744.14;;;16.74;65.86
76868;BME280;66168;45.478;11.060;2023-04-24T08:53:26;99746.27;;;16.77;65.93
76868;BME280;66168;45.478;11.060;2023-04-24T08:55:54;99745.19;;;16.81;66.02
76868;BME280;66168;45.478;11.060;2023-04-24T08:58:25;99753.74;;;16.82;65.76
76868;BME280;66168;45.478;11.060;2023-04-24T09:00:56;99757.52;;;16.82;65.42
76868;BME280;66168;45.478;11.060;2023-04-24T09:03:24;99754.84;;;16.75;65.56
76868;BME280;66168;45.478;11.060;2023-04-24T09:05:52;99766.55;;;16.63;65.86
76868;BME280;66168;45.478;11.060;2023-04-24T09:08:24;99770.91;;;16.56;65.43
76868;BME280;66168;45.478;11.060;2023-04-24T09:10:51;99776.78;;;16.49;65.57
76868;BME280;66168;45.478;11.060;2023-04-24T09:13:19;99783.92;;;16.49;65.69
76868;BME280;66168;45.478;11.060;2023-04-24T09:15:46;99791.60;;;16.53;65.40
76868;BME280;66168;45.478;11.060;2023-04-24T09:18:13;99796.65;;;16.57;65.08
76868;BME280;66168;45.478;11.060;2023-04-24T09:23:30;99797.84;;;16.67;62.81
76868;BME280;66168;45.478;11.060;2023-04-24T09:25:59;99800.35;;;16.66;61.55
76868;BME280;66168;45.478;11.060;2023-04-24T09:28:30;99795.31;;;16.69;62.64
76868;BME280;66168;45.478;11.060;2023-04-24T09:31:13;99794.34;;;16.76;62.46
76868;BME280;66168;45.478;11.060;2023-04-24T09:33:58;99789.19;;;16.96;61.87
76868;BME280;66168;45.478;11.060;2023-04-24T09:38:58;99779.51;;;17.32;61.20
76868;BME280;66168;45.478;11.060;2023-04-24T09:41:25;99774.23;;;17.47;61.40
76868;BME280;66168;45.478;11.060;2023-04-24T09:43:56;99769.31;;;17.69;61.48
76868;BME280;66168;45.478;11.060;2023-04-24T09:46:30;99770.20;;;17.93;59.62
76868;BME280;66168;45.478;11.060;2023-04-24T09:49:14;99766.83;;;18.03;59.88
76868;BME280;66168;45.478;11.060;2023-04-24T09:51:42;99766.98;;;18.17;59.76
76868;BME280;66168;45.478;11.060;2023-04-24T09:54:20;99769.98;;;18.33;59.59
76868;BME280;66168;45.478;11.060;2023-04-24T09:56:49;99771.52;;;18.66;59.21
76868;BME280;66168;45.478;11.060;2023-04-24T09:59:19;99764.13;;;19.03;58.86
76868;BME280;66168;45.478;11.060;2023-04-24T10:01:47;99766.73;;;19.35;57.73
76868;BME280;66168;45.478;11.060;2023-04-24T10:04:20;99765.51;;;19.50;57.38
76868;BME280;66168;45.478;11.060;2023-04-24T10:06:48;99760.48;;;19.49;56.99
76868;BME280;66168;45.478;11.060;2023-04-24T10:09:16;99757.88;;;19.41;56.78
76868;BME280;66168;45.478;11.060;2023-04-24T10:11:45;99759.23;;;19.42;56.94
76868;BME280;66168;45.478;11.060;2023-04-24T10:14:17;99757.31;;;19.39;56.16
76868;BME280;66168;45.478;11.060;2023-04-24T10:16:44;99760.96;;;19.29;56.57
76868;BME280;66168;45.478;11.060;2023-04-24T10:19:14;99767.80;;;19.23;56.08
76868;BME280;66168;45.478;11.060;2023-04-24T10:21:43;99758.41;;;19.23;56.24
76868;BME280;66168;45.478;11.060;2023-04-24T10:24:18;99760.25;;;19.18;55.22
76868;BME280;66168;45.478;11.060;2023-04-24T10:26:45;99767.11;;;19.15;54.02
76868;BME280;66168;45.478;11.060;2023-04-24T10:29:16;99766.55;;;19.13;53.94
76868;BME280;66168;45.478;11.060;2023-04-24T10:31:44;99770.50;;;19.14;53.79
76868;BME280;66168;45.478;11.060;2023-04-24T10:34:15;99777.70;;;19.22;53.37
76868;BME280;66168;45.478;11.060;2023-04-24T10:36:47;99780.96;;;19.33;54.28
76868;BME280;66168;45.478;11.060;2023-04-24T10:39:16;99779.55;;;19.47;53.65
76868;BME280;66168;45.478;11.060;2023-04-24T10:41:43;99786.19;;;19.56;54.10
76868;BME280;66168;45.478;11.060;2023-04-24T10:44:12;99787.00;;;19.69;53.62
76868;BME280;66168;45.478;11.060;2023-04-24T10:46:44;99792.34;;;19.87;53.53
76868;BME280;66168;45.478;11.060;2023-04-24T10:49:11;99789.92;;;20.11;53.18
76868;BME280;66168;45.478;11.060;2023-04-24T10:51:45;99797.48;;;20.26;52.10
76868;BME280;66168;45.478;11.060;2023-04-24T10:54:26;99799.42;;;20.41;52.02
76868;BME280;66168;45.478;11.060;2023-04-24T10:59:49;99800.37;;;20.71;50.34
76868;BME280;66168;45.478;11.060;2023-04-24T11:02:18;99802.00;;;20.88;50.48
76868;BME280;66168;45.478;11.060;2023-04-24T11:04:45;99800.36;;;21.04;50.12
76868;BME280;66168;45.478;11.060;2023-04-24T11:07:13;99801.66;;;21.28;50.21
76868;BME280;66168;45.478;11.060;2023-04-24T11:09:41;99799.35;;;21.61;49.13
76868;BME280;66168;45.478;11.060;2023-04-24T11:12:11;99802.55;;;21.94;49.19
76868;BME280;66168;45.478;11.060;2023-04-24T11:17:33;99800.11;;;22.65;47.56
76868;BME280;66168;45.478;11.060;2023-04-24T11:20:01;99797.36;;;22.92;47.22
76868;BME280;66168;45.478;11.060;2023-04-24T11:22:45;99796.80;;;23.12;45.31
76868;BME280;66168;45.478;11.060;2023-04-24T11:25:12;99793.53;;;23.25;45.90
76868;BME280;66168;45.478;11.060;2023-04-24T11:27:43;99788.13;;;23.30;45.33
76868;BME280;66168;45.478;11.060;2023-04-24T11:30:10;99794.08;;;23.34;45.60
76868;BME280;66168;45.478;11.060;2023-04-24T11:32:42;99792.05;;;23.44;45.66
76868;BME280;66168;45.478;11.060;2023-04-24T11:35:17;99793.48;;;23.66;46.41
76868;BME280;66168;45.478;11.060;2023-04-24T11:37:47;99790.06;;;23.94;45.56
76868;BME280;66168;45.478;11.060;2023-04-24T11:40:21;99788.10;;;23.95;43.87
76868;BME280;66168;45.478;11.060;2023-04-24T11:42:53;99791.70;;;24.06;44.41
76868;BME280;66168;45.478;11.060;2023-04-24T11:45:26;99789.38;;;24.14;44.14
76868;BME280;66168;45.478;11.060;2023-04-24T11:47:53;99784.71;;;24.26;43.81
76868;BME280;66168;45.478;11.060;2023-04-24T11:50:25;99786.59;;;24.39;43.71
76868;BME280;66168;45.478;11.060;2023-04-24T11:52:54;99785.34;;;24.60;42.82
76868;BME280;66168;45.478;11.060;2023-04-24T11:57:51;99783.38;;;24.92;41.86
76868;BME280;66168;45.478;11.060;2023-04-24T12:00:22;99780.95;;;24.98;41.86
76868;BME280;66168;45.478;11.060;2023-04-24T12:02:50;99783.14;;;25.10;42.39
76868;BME280;66168;45.478;11.060;2023-04-24T12:05:25;99781.34;;;25.09;41.33
76868;BME280;66168;45.478;11.060;2023-04-24T12:07:53;99782.86;;;25.10;41.84
76868;BME280;66168;45.478;11.060;2023-04-24T12:10:21;99778.91;;;25.29;41.43
76868;BME280;66168;45.478;11.060;2023-04-24T12:12:49;99776.86;;;25.31;39.43
76868;BME280;66168;45.478;11.060;2023-04-24T12:15:19;99782.38;;;25.06;39.68
76868;BME280;66168;45.478;11.060;2023-04-24T12:17:46;99785.94;;;25.03;39.61
76868;BME280;66168;45.478;11.060;2023-04-24T12:20:14;99784.85;;;25.32;40.13
76868;BME280;66168;45.478;11.060;2023-04-24T12:22:48;99783.55;;;25.53;38.96
76868;BME280;66168;45.478;11.060;2023-04-24T12:25:18;99784.91;;;25.47;38.57
76868;BME280;66168;45.478;11.060;2023-04-24T12:27:46;99785.48;;;25.34;37.97
76868;BME280;66168;45.478;11.060;2023-04-24T12:30:15;99787.54;;;25.28;38.37
76868;BME280;66168;45.478;11.060;2023-04-24T12:32:44;99785.65;;;25.38;39.14
76868;BME280;66168;45.478;11.060;2023-04-24T12:35:12;99785.42;;;25.65;38.29
76868;BME280;66168;45.478;11.060;2023-04-24T12:37:42;99780.55;;;25.56;37.71
76868;BME280;66168;45.478;11.060;2023-04-24T12:40:13;99775.38;;;25.44;37.95
76868;BME280;66168;45.478;11.060;2023-04-24T12:42:44;99773.83;;;25.38;38.41
76868;BME280;66168;45.478;11.060;2023-04-24T12:45:11;99771.73;;;25.60;38.49
76868;BME280;66168;45.478;11.060;2023-04-24T12:47:39;99765.60;;;25.89;37.60
76868;BME280;66168;45.478;11.060;2023-04-24T12:50:11;99764.75;;;26.17;36.87
76868;BME280;66168;45.478;11.060;2023-04-24T12:52:39;99752.13;;;26.16;36.49
76868;BME280;66168;45.478;11.060;2023-04-24T12:55:06;99755.70;;;26.34;36.89
76868;BME280;66168;45.478;11.060;2023-04-24T12:57:39;99752.15;;;26.50;35.98
76868;BME280;66168;45.478;11.060;2023-04-24T13:00:08;99753.45;;;26.39;33.19
76868;BME280;66168;45.478;11.060;2023-04-24T13:02:35;99749.80;;;26.22;34.52
76868;BME280;66168;45.478;11.060;2023-04-24T13:05:03;99748.40;;;26.50;35.09
76868;BME280;66168;45.478;11.060;2023-04-24T13:07:30;99747.49;;;26.74;34.54
76868;BME280;66168;45.478;11.060;2023-04-24T13:09:56;99739.30;;;26.97;34.02
76868;BME280;66168;45.478;11.060;2023-04-24T13:12:24;99735.54;;;27.23;34.33